Time;durP1;ratioP1;P1;durP2;ratioP2;P2;SDS_P1;SDS_P2;PMS_P1;PMS_P2;Temp;Humidity;BMP_temperature;BMP_pressure;BME280_temperature;BME280_humidity;BME280_pressure;Samples;Min_cycle;Max_cycle;Signal;HPM_P1;HPM_P2
2023/06/21 00:01:08;;;;;;;0.00;0.00;;;;;;;21.44;76.18;97249.06;5022634;28;20056;-72
2023/06/21 00:03:37;;;;;;;0.10;0.10;;;;;;;21.34;76.20;97253.69;5020557;28;20065;-73
2023/06/21 00:06:05;;;;;;;0.05;0.05;;;;;;;21.21;76.32;97246.88;5018859;28;20520;-72
2023/06/21 00:08:33;;;;;;;0.10;0.10;;;;;;;21.25;76.42;97245.25;5022586;28;20100;-72
2023/06/21 00:11:01;;;;;;;0.00;0.00;;;;;;;21.35;75.83;97245.25;5018236;28;20554;-73
2023/06/21 00:13:29;;;;;;;0.03;0.03;;;;;;;21.20;77.09;97237.09;5009624;28;20124;-72
2023/06/21 00:15:57;;;;;;;0.03;0.03;;;;;;;21.14;77.03;97246.31;5008020;28;20033;-72
2023/06/21 00:18:25;;;;;;;0.00;0.00;;;;;;;21.11;77.23;97239.50;5011235;28;20125;-72
2023/06/21 00:20:59;;;;;;;0.10;0.10;;;;;;;21.07;77.51;97222.16;5017416;28;20046;-72
2023/06/21 00:23:27;;;;;;;0.10;0.10;;;;;;;21.07;76.64;97221.34;5012051;28;20074;-73
2023/06/21 00:25:55;;;;;;;0.03;0.03;;;;;;;21.14;76.82;97227.31;5011485;28;20042;-73
2023/06/21 00:28:22;;;;;;;0.10;0.10;;;;;;;20.91;77.24;97220.50;5023306;28;20045;-73
2023/06/21 00:30:50;;;;;;;0.03;0.03;;;;;;;20.91;77.07;97211.53;5029917;28;20041;-73
2023/06/21 00:33:18;;;;;;;0.00;0.00;;;;;;;20.86;76.60;97221.31;5011756;28;20509;-72
2023/06/21 00:35:45;;;;;;;0.00;0.00;;;;;;;20.86;76.38;97215.09;5022581;28;20050;-73
2023/06/21 00:38:14;;;;;;;0.10;0.10;;;;;;;20.89;76.22;97225.38;5017064;28;20477;-74
2023/06/21 00:40:42;;;;;;;0.03;0.03;;;;;;;20.98;76.43;97218.34;5016492;28;20064;-72
2023/06/21 00:43:10;;;;;;;0.10;0.10;;;;;;;20.86;76.41;97226.75;5024243;28;20037;-74
2023/06/21 00:45:39;;;;;;;0.03;0.03;;;;;;;20.79;76.17;97220.75;5015413;28;20061;-73
2023/06/21 00:48:07;;;;;;;0.03;0.03;;;;;;;20.89;76.30;97226.19;5028931;28;20118;-73
2023/06/21 00:50:35;;;;;;;0.10;0.10;;;;;;;20.91;76.46;97214.25;5024605;28;20038;-73
2023/06/21 00:53:02;;;;;;;0.10;0.10;;;;;;;20.83;75.85;97218.34;5006372;28;20409;-73
2023/06/21 00:55:32;;;;;;;0.10;0.10;;;;;;;20.91;75.65;97214.25;5013162;28;20054;-73
2023/06/21 00:58:02;;;;;;;0.00;0.00;;;;;;;20.86;75.28;97210.47;5022845;28;20029;-74
2023/06/21 01:00:30;;;;;;;0.05;0.05;;;;;;;20.93;75.58;97209.38;5019328;28;20041;-73
2023/06/21 01:02:58;;;;;;;0.00;0.00;;;;;;;20.89;76.03;97223.47;5025624;28;20372;-73
2023/06/21 01:05:29;;;;;;;0.00;0.00;;;;;;;20.84;76.27;97230.81;5018316;28;20096;-73
2023/06/21 01:08:04;;;;;;;0.05;0.05;;;;;;;20.77;76.18;97230.25;5031415;28;20121;-73
2023/06/21 01:10:45;;;;;;;0.13;0.13;;;;;;;20.68;75.95;97232.66;5018954;28;20041;-73
2023/06/21 01:13:22;;;;;;;0.05;0.05;;;;;;;20.65;76.24;97240.53;5027301;28;20045;-73
2023/06/21 01:15:55;;;;;;;0.03;0.03;;;;;;;20.57;75.39;97244.56;5020127;28;20164;-72
2023/06/21 01:18:23;;;;;;;0.00;0.00;;;;;;;20.55;75.06;97245.94;5014972;28;20328;-72
2023/06/21 01:20:54;;;;;;;0.00;0.00;;;;;;;20.50;75.53;97244.84;5018201;28;20037;-73
2023/06/21 01:23:29;;;;;;;0.00;0.00;;;;;;;20.47;75.22;97249.97;5019749;28;20416;-73
2023/06/21 01:26:11;;;;;;;0.03;0.03;;;;;;;20.40;75.11;97244.81;5015719;28;20046;-73
2023/06/21 01:29:11;;;;;;;0.03;0.03;;;;;;;20.37;75.45;97250.75;5021066;28;20063;-73
2023/06/21 01:31:42;;;;;;;0.10;0.10;;;;;;;20.27;75.73;97250.69;5017115;28;20050;-72
2023/06/21 01:34:10;;;;;;;0.10;0.10;;;;;;;20.26;76.13;97245.50;5014494;28;20504;-71
2023/06/21 01:36:39;;;;;;;0.00;0.00;;;;;;;20.22;75.83;97250.66;5013358;28;20042;-72
2023/06/21 01:39:09;;;;;;;0.10;0.10;;;;;;;20.22;75.33;97256.09;5021122;28;20064;-72
2023/06/21 01:41:37;;;;;;;0.03;0.03;;;;;;;20.20;75.94;97260.97;5023814;28;20057;-73
2023/06/21 01:44:07;;;;;;;0.10;0.10;;;;;;;20.21;75.99;97265.31;5024905;28;20124;-72
2023/06/21 01:46:37;;;;;;;0.10;0.10;;;;;;;20.19;76.24;97259.31;5009030;28;20052;-73
2023/06/21 01:49:06;;;;;;;0.03;0.03;;;;;;;20.11;76.02;97260.66;5024162;28;20049;-73
2023/06/21 01:51:36;;;;;;;0.10;0.10;;;;;;;20.01;76.57;97252.47;5023731;28;20055;-72
2023/06/21 01:54:04;;;;;;;0.00;0.00;;;;;;;19.93;77.20;97261.09;5012103;28;20078;-73
2023/06/21 01:56:32;;;;;;;0.03;0.03;;;;;;;19.89;77.13;97265.41;5009477;28;20412;-72
2023/06/21 01:59:01;;;;;;;0.05;0.05;;;;;;;19.86;77.35;97262.38;5010672;28;20046;-72
2023/06/21 02:01:30;;;;;;;0.10;0.10;;;;;;;19.84;77.03;97267.25;5019981;28;20045;-71
2023/06/21 02:04:01;;;;;;;0.08;0.08;;;;;;;19.79;77.30;97268.06;5009041;28;20490;-72
2023/06/21 02:06:31;;;;;;;0.10;0.10;;;;;;;19.78;76.74;97264.53;5028535;28;20049;-72
2023/06/21 02:08:59;;;;;;;0.15;0.15;;;;;;;19.87;76.55;97270.25;5004357;28;20052;-72
2023/06/21 02:11:27;;;;;;;0.10;0.10;;;;;;;19.87;77.07;97277.56;5013468;28;20073;-71
2023/06/21 02:13:58;;;;;;;0.00;0.00;;;;;;;19.96;76.83;97282.22;5015731;28;20439;-72
2023/06/21 02:16:26;;;;;;;0.10;0.10;;;;;;;19.74;76.86;97285.06;5012103;28;20136;-72
2023/06/21 02:18:59;;;;;;;0.10;0.10;;;;;;;19.81;77.17;97286.75;5004196;28;20034;-72
2023/06/21 02:21:27;;;;;;;0.03;0.03;;;;;;;19.87;76.73;97283.81;5003115;28;20129;-72
2023/06/21 02:23:54;;;;;;;0.10;0.10;;;;;;;19.83;76.50;97285.41;5027112;28;20440;-72
2023/06/21 02:26:22;;;;;;;0.10;0.10;;;;;;;19.85;76.78;97290.56;5017556;28;20054;-72
2023/06/21 02:28:50;;;;;;;0.13;0.13;;;;;;;19.74;76.93;97285.06;5014937;28;20060;-72
2023/06/21 02:31:17;;;;;;;0.10;0.10;;;;;;;19.69;77.23;97290.47;5012603;28;20084;-72
2023/06/21 02:33:45;;;;;;;0.13;0.13;;;;;;;19.68;76.91;97291.53;5016173;28;20060;-71
2023/06/21 02:36:16;;;;;;;0.10;0.10;;;;;;;19.57;77.75;97294.44;5024190;28;20077;-71
2023/06/21 02:38:44;;;;;;;0.03;0.03;;;;;;;19.70;76.87;97294.81;5015815;28;20050;-71
2023/06/21 02:41:12;;;;;;;0.10;0.10;;;;;;;19.72;76.44;97297.25;5026519;28;20041;-72
2023/06/21 02:43:40;;;;;;;0.10;0.10;;;;;;;19.63;76.74;97293.38;5020556;28;20083;-73
2023/06/21 02:46:07;;;;;;;0.03;0.03;;;;;;;19.73;76.41;97286.16;5011202;28;20050;-72
2023/06/21 02:48:35;;;;;;;0.00;0.00;;;;;;;19.71;76.78;97296.44;5011154;28;20046;-72
2023/06/21 02:51:03;;;;;;;0.00;0.00;;;;;;;19.61;76.76;97298.25;5015446;28;20046;-72
2023/06/21 02:53:32;;;;;;;0.10;0.10;;;;;;;19.62;77.00;97297.97;5020465;28;20120;-72
2023/06/21 02:56:00;;;;;;;0.10;0.10;;;;;;;19.59;76.76;97303.13;5009520;28;20052;-73
2023/06/21 02:58:28;;;;;;;0.13;0.13;;;;;;;19.55;76.62;97304.69;5012698;28;20056;-74
2023/06/21 03:00:57;;;;;;;0.10;0.10;;;;;;;19.46;76.80;97301.63;5004187;28;20065;-72
2023/06/21 03:03:25;;;;;;;0.13;0.13;;;;;;;19.44;77.17;97318.13;5008898;28;20046;-71
2023/06/21 03:05:53;;;;;;;0.10;0.10;;;;;;;19.44;76.92;97320.84;5010480;28;20124;-72
2023/06/21 03:08:21;;;;;;;0.03;0.03;;;;;;;19.40;77.10;97324.34;5012261;28;20069;-72
2023/06/21 03:10:50;;;;;;;0.05;0.05;;;;;;;19.34;77.29;97328.03;5017242;28;20529;-72
2023/06/21 03:13:17;;;;;;;0.03;0.03;;;;;;;19.36;77.14;97334.84;5015010;28;20517;-71
2023/06/21 03:15:45;;;;;;;0.13;0.13;;;;;;;19.39;76.87;97339.75;5021323;28;20046;-71
2023/06/21 03:18:15;;;;;;;0.13;0.13;;;;;;;19.42;76.74;97335.69;5011936;28;20141;-71
2023/06/21 03:20:44;;;;;;;0.10;0.10;;;;;;;19.39;76.83;97338.94;5020961;28;20054;-72
2023/06/21 03:23:11;;;;;;;0.10;0.10;;;;;;;19.36;76.75;97342.97;5020200;28;20065;-73
2023/06/21 03:25:41;;;;;;;0.20;0.20;;;;;;;19.40;76.56;97344.09;5020189;28;20501;-71
2023/06/21 03:28:12;;;;;;;0.10;0.10;;;;;;;19.30;76.88;97344.00;5010242;28;20144;-72
2023/06/21 03:30:39;;;;;;;0.03;0.03;;;;;;;19.35;76.95;97345.91;5013876;28;20041;-72
2023/06/21 03:33:08;;;;;;;0.00;0.00;;;;;;;19.33;77.12;97350.78;5018514;28;20141;-72
2023/06/21 03:35:36;;;;;;;0.03;0.03;;;;;;;19.29;77.02;97346.97;5009696;28;20046;-72
2023/06/21 03:38:03;;;;;;;0.03;0.03;;;;;;;19.22;77.47;97357.97;5016275;28;20515;-72
2023/06/21 03:40:38;;;;;;;0.10;0.10;;;;;;;19.20;77.48;97354.72;5012193;28;20049;-72
2023/06/21 03:43:05;;;;;;;0.10;0.10;;;;;;;19.23;77.70;97354.19;5023546;28;20056;-73
2023/06/21 03:45:35;;;;;;;0.13;0.13;;;;;;;19.27;77.61;97360.75;5003440;28;20050;-72
2023/06/21 03:48:05;;;;;;;0.10;0.10;;;;;;;19.28;77.58;97361.56;5013506;28;20053;-72
2023/06/21 03:50:35;;;;;;;0.08;0.08;;;;;;;19.30;77.29;97354.81;5015296;28;20588;-73
2023/06/21 03:53:04;;;;;;;0.10;0.10;;;;;;;19.37;77.11;97360.03;5004049;28;20042;-72
2023/06/21 03:55:32;;;;;;;0.03;0.03;;;;;;;19.32;77.29;97366.19;5003382;28;20568;-71
2023/06/21 03:58:00;;;;;;;0.13;0.13;;;;;;;19.30;77.47;97364.84;5009086;28;20494;-72
2023/06/21 04:00:27;;;;;;;0.03;0.03;;;;;;;19.30;77.33;97373.78;5009041;28;20041;-73
2023/06/21 04:02:57;;;;;;;0.20;0.20;;;;;;;19.26;77.66;97369.13;5001161;28;20405;-73
2023/06/21 04:05:25;;;;;;;0.10;0.10;;;;;;;19.31;77.52;97378.09;5002672;28;20449;-72
2023/06/21 04:07:53;;;;;;;0.00;0.00;;;;;;;19.35;77.41;97373.00;5005618;28;20136;-72
2023/06/21 04:10:20;;;;;;;0.10;0.10;;;;;;;19.44;76.80;97376.88;5012717;28;20045;-72
2023/06/21 04:12:48;;;;;;;0.10;0.10;;;;;;;19.44;76.57;97371.44;5016111;28;20405;-72
2023/06/21 04:15:16;;;;;;;0.10;0.10;;;;;;;19.45;76.73;97383.91;5014126;28;20415;-72
2023/06/21 04:17:44;;;;;;;0.17;0.17;;;;;;;19.50;76.53;97384.00;5007843;28;20053;-72
2023/06/21 04:20:15;;;;;;;0.13;0.13;;;;;;;19.49;76.26;97386.97;5025953;28;20085;-72
2023/06/21 04:22:45;;;;;;;0.20;0.20;;;;;;;19.52;76.34;97394.59;5013641;28;20048;-72
2023/06/21 04:25:12;;;;;;;0.15;0.15;;;;;;;19.56;76.19;97398.41;5012334;28;20034;-75
2023/06/21 04:27:40;;;;;;;0.03;0.03;;;;;;;19.59;76.43;97395.19;5009113;28;20477;-72
2023/06/21 04:30:10;;;;;;;0.13;0.13;;;;;;;19.61;76.15;97398.47;5009537;28;20046;-73
2023/06/21 04:32:44;;;;;;;0.13;0.13;;;;;;;19.70;76.14;97394.22;5010030;28;20575;-73
2023/06/21 04:35:15;;;;;;;0.10;0.10;;;;;;;19.74;75.59;97403.44;5019524;28;20049;-72
2023/06/21 04:37:44;;;;;;;0.05;0.05;;;;;;;19.70;76.31;97413.16;5022133;28;20049;-72
2023/06/21 04:40:15;;;;;;;0.00;0.00;;;;;;;19.73;76.32;97409.91;5020517;28;20053;-72
2023/06/21 04:42:46;;;;;;;0.10;0.10;;;;;;;19.86;76.07;97416.81;5021535;28;20079;-72
2023/06/21 04:45:15;;;;;;;0.10;0.10;;;;;;;19.93;75.59;97410.13;5015571;28;20388;-72
2023/06/21 04:47:42;;;;;;;0.10;0.10;;;;;;;20.00;75.65;97424.25;5011507;28;20042;-72
2023/06/21 04:50:11;;;;;;;0.10;0.10;;;;;;;20.09;75.51;97427.31;5007281;28;20045;-71
2023/06/21 04:53:00;;;;;;;0.10;0.10;;;;;;;20.05;75.62;97427.00;5008177;28;20044;-71
2023/06/21 04:55:28;;;;;;;0.03;0.03;;;;;;;20.21;75.48;97441.50;5020894;28;20030;-72
2023/06/21 04:57:58;;;;;;;0.10;0.10;;;;;;;20.11;75.47;97439.53;5012603;28;20160;-72
2023/06/21 05:00:26;;;;;;;0.03;0.03;;;;;;;20.11;75.59;97431.41;5020367;28;20467;-72
2023/06/21 05:02:55;;;;;;;0.03;0.03;;;;;;;20.15;75.59;97437.09;5021390;28;20382;-72
2023/06/21 05:05:23;;;;;;;0.03;0.03;;;;;;;20.19;75.40;97434.69;5017143;28;20041;-73
2023/06/21 05:07:50;;;;;;;0.03;0.03;;;;;;;20.26;75.23;97433.38;5021175;28;20055;-73
2023/06/21 05:10:19;;;;;;;0.00;0.00;;;;;;;20.31;75.53;97440.75;5021784;28;20066;-73
2023/06/21 05:12:47;;;;;;;0.13;0.13;;;;;;;20.34;75.04;97440.22;5021357;28;20045;-73
2023/06/21 05:15:14;;;;;;;0.00;0.00;;;;;;;20.38;75.32;97439.47;5022769;28;20127;-73
2023/06/21 05:17:42;;;;;;;0.08;0.08;;;;;;;20.46;75.21;97441.69;5025680;28;20037;-73
2023/06/21 05:20:11;;;;;;;0.10;0.10;;;;;;;20.53;74.81;97441.47;5027218;28;20049;-72
2023/06/21 05:22:38;;;;;;;0.10;0.10;;;;;;;20.62;74.76;97437.19;5024541;28;20052;-73
2023/06/21 05:25:06;;;;;;;0.03;0.03;;;;;;;20.64;74.62;97445.06;5026145;28;20045;-72
2023/06/21 05:27:35;;;;;;;0.10;0.10;;;;;;;20.72;74.76;97448.09;5025423;28;20041;-72
2023/06/21 05:30:03;;;;;;;0.10;0.10;;;;;;;20.75;74.50;97446.75;5022366;28;20056;-72
2023/06/21 05:32:31;;;;;;;0.20;0.10;;;;;;;20.82;74.54;97448.13;5028179;28;20421;-72
2023/06/21 05:34:58;;;;;;;0.10;0.10;;;;;;;20.89;74.49;97443.28;5022000;28;20502;-73
2023/06/21 05:37:26;;;;;;;0.10;0.10;;;;;;;20.95;74.36;97448.75;5026890;28;20041;-73
2023/06/21 05:39:53;;;;;;;0.10;0.10;;;;;;;21.02;73.85;97452.03;5022710;28;20042;-72
2023/06/21 05:42:21;;;;;;;0.10;0.10;;;;;;;21.05;73.69;97457.75;5024978;28;20057;-73
2023/06/21 05:44:50;;;;;;;0.10;0.10;;;;;;;21.12;73.36;97457.50;5025037;28;20045;-71
2023/06/21 05:47:17;;;;;;;0.00;0.00;;;;;;;21.19;73.31;97452.66;5022466;28;20140;-71
2023/06/21 05:49:45;;;;;;;0.03;0.03;;;;;;;21.32;73.02;97443.22;5029830;28;20049;-72
2023/06/21 05:52:12;;;;;;;0.03;0.03;;;;;;;21.46;73.04;97447.88;5022064;28;20050;-72
2023/06/21 05:54:41;;;;;;;0.00;0.00;;;;;;;21.54;72.48;97457.41;5028935;28;20052;-74
2023/06/21 05:57:09;;;;;;;0.10;0.10;;;;;;;21.55;72.38;97468.00;5021138;28;20489;-72
2023/06/21 05:59:37;;;;;;;0.10;0.10;;;;;;;21.64;72.56;97460.13;5030198;28;20088;-72
2023/06/21 06:02:07;;;;;;;0.10;0.10;;;;;;;21.68;72.12;97463.97;5023434;28;20046;-72
2023/06/21 06:04:37;;;;;;;0.03;0.03;;;;;;;21.71;71.84;97466.13;5025613;28;20073;-71
2023/06/21 06:07:05;;;;;;;0.03;0.03;;;;;;;21.78;72.00;97466.69;5026971;28;20063;-71
2023/06/21 06:09:32;;;;;;;0.10;0.10;;;;;;;21.88;71.57;97471.31;5013825;28;20046;-72
2023/06/21 06:12:00;;;;;;;0.00;0.00;;;;;;;21.97;71.38;97472.41;5029175;28;20046;-72
2023/06/21 06:14:28;;;;;;;0.05;0.05;;;;;;;22.07;70.85;97469.72;5024417;28;20060;-75
2023/06/21 06:16:55;;;;;;;0.10;0.10;;;;;;;22.20;70.83;97476.53;5026751;28;20041;-72
2023/06/21 06:19:24;;;;;;;0.00;0.00;;;;;;;22.22;69.94;97477.06;5026863;28;20056;-72
2023/06/21 06:21:52;;;;;;;0.10;0.10;;;;;;;22.32;69.53;97485.25;5018756;28;20128;-72
2023/06/21 06:24:19;;;;;;;0.08;0.08;;;;;;;22.40;69.21;97490.13;5021181;28;20100;-72
2023/06/21 06:26:47;;;;;;;0.10;0.10;;;;;;;22.45;69.03;97487.41;5021100;28;20203;-73
2023/06/21 06:29:14;;;;;;;0.08;0.08;;;;;;;22.51;68.72;97494.47;5024701;28;20416;-73
2023/06/21 06:31:42;;;;;;;0.05;0.05;;;;;;;22.60;68.42;97494.75;5022550;28;20046;-73
2023/06/21 06:34:09;;;;;;;0.00;0.00;;;;;;;22.68;68.58;97496.91;5024480;28;20424;-73
2023/06/21 06:36:38;;;;;;;0.10;0.10;;;;;;;22.78;68.21;97502.34;5022247;28;20046;-72
2023/06/21 06:39:07;;;;;;;0.10;0.10;;;;;;;22.83;67.82;97504.25;5024388;28;20049;-73
2023/06/21 06:41:35;;;;;;;0.20;0.20;;;;;;;22.88;67.37;97509.69;5018354;28;20379;-73
2023/06/21 06:44:05;;;;;;;0.03;0.03;;;;;;;23.01;66.76;97518.09;5021332;28;20038;-72
2023/06/21 06:46:33;;;;;;;0.10;0.03;;;;;;;23.02;65.89;97521.63;5017144;28;20052;-73
2023/06/21 06:49:01;;;;;;;0.08;0.08;;;;;;;23.04;66.57;97528.44;5005405;28;20061;-73
2023/06/21 06:51:28;;;;;;;0.10;0.10;;;;;;;23.20;66.33;97533.84;5020500;28;20074;-73
2023/06/21 06:53:57;;;;;;;0.00;0.00;;;;;;;23.41;65.04;97524.50;5024169;28;20045;-74
2023/06/21 06:56:29;;;;;;;0.10;0.10;;;;;;;23.55;63.79;97536.47;5023640;28;20042;-73
2023/06/21 06:58:56;;;;;;;0.10;0.10;;;;;;;23.65;63.76;97533.69;5020145;28;20049;-73
2023/06/21 07:01:27;;;;;;;0.00;0.00;;;;;;;23.76;63.74;97526.28;5018063;28;20046;-72
2023/06/21 07:03:56;;;;;;;0.00;0.00;;;;;;;23.83;62.22;97525.97;5015608;28;20050;-73
2023/06/21 07:06:24;;;;;;;0.03;0.03;;;;;;;23.94;61.68;97525.63;5025027;28;20041;-74
2023/06/21 07:08:52;;;;;;;0.03;0.03;;;;;;;24.04;61.01;97525.56;5019064;28;20048;-72
2023/06/21 07:11:21;;;;;;;0.20;0.20;;;;;;;24.19;59.99;97524.63;5021086;28;20045;-73
2023/06/21 07:13:48;;;;;;;0.05;0.05;;;;;;;24.27;59.03;97540.44;5015476;28;20042;-73
2023/06/21 07:16:16;;;;;;;0.00;0.00;;;;;;;24.32;58.43;97542.31;5020383;28;20501;-73
2023/06/21 07:18:43;;;;;;;0.03;0.03;;;;;;;24.39;58.07;97543.63;5019730;28;20504;-73
2023/06/21 07:21:11;;;;;;;0.00;0.00;;;;;;;24.42;57.26;97551.22;5024084;28;20085;-74
2023/06/21 07:23:39;;;;;;;0.00;0.00;;;;;;;24.51;56.04;97556.91;5020778;28;20050;-73
2023/06/21 07:26:06;;;;;;;0.05;0.05;;;;;;;24.52;56.20;97542.97;5026223;28;20368;-73
2023/06/21 07:28:35;;;;;;;0.00;0.00;;;;;;;24.55;56.74;97546.22;5017499;28;20048;-73
2023/06/21 07:31:05;;;;;;;0.05;0.05;;;;;;;24.43;55.76;97560.25;5023208;28;20045;-73
2023/06/21 07:33:33;;;;;;;0.10;0.10;;;;;;;24.48;55.92;97557.47;5021109;28;20045;-73
2023/06/21 07:36:01;;;;;;;0.00;0.00;;;;;;;24.56;55.41;97545.94;5015853;28;20042;-72
2023/06/21 07:38:29;;;;;;;0.03;0.03;;;;;;;24.82;54.45;97555.53;5008585;28;20045;-72
2023/06/21 07:40:56;;;;;;;0.08;0.08;;;;;;;24.94;53.37;97554.38;5014560;28;20049;-73
2023/06/21 07:43:24;;;;;;;0.03;0.03;;;;;;;24.98;53.67;97545.31;5019483;28;20054;-73
2023/06/21 07:45:54;;;;;;;0.10;0.10;;;;;;;24.98;53.14;97539.84;5018437;28;20045;-72
2023/06/21 07:48:41;;;;;;;0.05;0.05;;;;;;;25.03;53.61;97539.78;5021149;28;20042;-73
2023/06/21 07:51:09;;;;;;;0.03;0.03;;;;;;;25.09;53.54;97543.31;5019082;28;20092;-73
2023/06/21 07:53:37;;;;;;;0.00;0.00;;;;;;;25.31;53.58;97545.53;5014729;28;20323;-73
2023/06/21 07:56:05;;;;;;;0.10;0.10;;;;;;;25.35;53.73;97547.38;5021399;28;20056;-73
2023/06/21 07:58:33;;;;;;;0.03;0.03;;;;;;;25.18;54.42;97544.28;5021850;28;20065;-74
2023/06/21 08:01:02;;;;;;;0.05;0.05;;;;;;;25.36;53.40;97527.13;5022971;28;20107;-73
2023/06/21 08:03:30;;;;;;;0.00;0.00;;;;;;;25.72;52.66;97534.94;5016648;28;20060;-73
2023/06/21 08:05:57;;;;;;;0.10;0.10;;;;;;;25.93;52.70;97530.81;5020138;28;20489;-74
2023/06/21 08:08:25;;;;;;;0.00;0.00;;;;;;;26.14;51.07;97523.13;5015502;28;20441;-73
2023/06/21 08:10:55;;;;;;;0.10;0.10;;;;;;;26.04;51.17;97526.84;5012270;28;20386;-73
2023/06/21 08:13:23;;;;;;;0.03;0.03;;;;;;;25.86;51.62;97525.69;5016007;28;20050;-73
2023/06/21 08:15:51;;;;;;;0.00;0.00;;;;;;;25.92;50.88;97527.28;5010788;28;20050;-73
2023/06/21 08:18:20;;;;;;;0.03;0.03;;;;;;;25.92;51.48;97524.53;5019327;28;20049;-74
2023/06/21 08:20:48;;;;;;;0.00;0.00;;;;;;;25.94;51.15;97514.13;5025857;28;20057;-73
2023/06/21 08:23:16;;;;;;;0.00;0.00;;;;;;;25.99;51.34;97518.69;5011334;28;20069;-73
2023/06/21 08:25:45;;;;;;;0.00;0.00;;;;;;;26.24;50.87;97522.97;5018539;28;20057;-74
2023/06/21 08:28:13;;;;;;;0.00;0.00;;;;;;;26.45;50.54;97526.22;5012199;28;20479;-73
2023/06/21 08:30:40;;;;;;;0.00;0.00;;;;;;;26.30;50.54;97528.09;5008888;28;20046;-73
2023/06/21 08:33:08;;;;;;;0.00;0.00;;;;;;;26.40;50.17;97524.38;5026455;28;20121;-73
2023/06/21 08:35:41;;;;;;;0.03;0.03;;;;;;;26.35;50.15;97531.88;5019405;28;20433;-73
2023/06/21 08:38:08;;;;;;;0.00;0.00;;;;;;;26.31;51.13;97524.25;5021740;28;20576;-73
2023/06/21 08:40:58;;;;;;;0.00;0.00;;;;;;;26.35;49.88;97523.66;5022569;28;20045;-74
2023/06/21 08:43:26;;;;;;;0.10;0.10;;;;;;;26.44;50.22;97516.38;5023264;28;20436;-74
2023/06/21 08:45:54;;;;;;;0.00;0.00;;;;;;;26.75;49.39;97519.44;5018264;28;20505;-73
2023/06/21 08:48:22;;;;;;;0.00;0.00;;;;;;;27.10;49.26;97520.75;5019860;28;20136;-72
2023/06/21 08:50:52;;;;;;;0.00;0.00;;;;;;;27.41;47.61;97521.75;5021498;28;20066;-73
2023/06/21 08:53:23;;;;;;;0.00;0.00;;;;;;;27.25;46.02;97531.41;5020759;28;20050;-73
2023/06/21 08:55:51;;;;;;;0.00;0.00;;;;;;;27.20;47.07;97523.28;5021958;28;20042;-73
2023/06/21 08:58:22;;;;;;;0.00;0.00;;;;;;;27.47;46.82;97526.03;5024708;28;20416;-72
2023/06/21 09:00:53;;;;;;;0.00;0.00;;;;;;;27.58;45.32;97510.19;5020571;28;20509;-73
2023/06/21 09:03:25;;;;;;;0.00;0.00;;;;;;;27.31;45.32;97487.13;5017887;28;20121;-72
2023/06/21 09:05:58;;;;;;;0.00;0.00;;;;;;;27.80;45.25;97504.78;5018176;28;20055;-72
2023/06/21 09:08:26;;;;;;;0.10;0.10;;;;;;;27.99;46.03;97508.19;5026815;28;20444;-72
2023/06/21 09:10:54;;;;;;;0.03;0.03;;;;;;;28.08;44.93;97520.06;5014514;28;20504;-73
2023/06/21 09:13:24;;;;;;;0.00;0.00;;;;;;;28.28;44.36;97518.78;5019211;28;20054;-72
2023/06/21 09:15:52;;;;;;;0.00;0.00;;;;;;;28.21;43.94;97510.19;5027529;28;20077;-73
2023/06/21 09:18:20;;;;;;;0.00;0.00;;;;;;;28.41;43.28;97526.19;5018016;28;20313;-73
2023/06/21 09:20:49;;;;;;;0.00;0.00;;;;;;;28.45;42.66;97531.84;5028101;28;20072;-72
2023/06/21 09:23:18;;;;;;;0.00;0.00;;;;;;;28.65;42.43;97522.31;5022586;28;20049;-73
2023/06/21 09:25:48;;;;;;;0.00;0.00;;;;;;;29.08;41.87;97536.31;5030471;28;20527;-72
2023/06/21 09:28:15;;;;;;;0.00;0.00;;;;;;;29.09;41.45;97535.19;5025107;28;20037;-72
2023/06/21 09:30:44;;;;;;;0.00;0.00;;;;;;;29.08;41.68;97542.63;5026256;28;20045;-73
2023/06/21 09:33:12;;;;;;;0.00;0.00;;;;;;;28.93;41.26;97542.22;5024860;28;20049;-73
2023/06/21 09:35:40;;;;;;;0.03;0.03;;;;;;;28.67;42.03;97540.09;5022274;28;20473;-72
2023/06/21 09:38:22;;;;;;;0.00;0.00;;;;;;;28.41;42.87;97544.59;5027602;28;20073;-73
2023/06/21 09:40:50;;;;;;;0.00;0.00;;;;;;;28.06;43.95;97549.75;5024145;28;20041;-72
2023/06/21 09:43:19;;;;;;;0.00;0.00;;;;;;;27.85;44.27;97545.00;5030141;28;20069;-72
2023/06/21 09:45:59;;;;;;;0.00;0.00;;;;;;;27.99;44.22;97546.63;5016386;28;20129;-72
2023/06/21 09:48:27;;;;;;;0.00;0.00;;;;;;;28.19;44.02;97550.06;5017944;28;20509;-72
2023/06/21 09:50:55;;;;;;;0.00;0.00;;;;;;;28.26;43.66;97547.69;5029999;28;20045;-72
2023/06/21 09:53:24;;;;;;;0.00;0.00;;;;;;;28.35;43.81;97543.88;5024371;28;20124;-72
2023/06/21 09:55:52;;;;;;;0.00;0.00;;;;;;;28.45;43.78;97559.31;5024055;28;20489;-72
2023/06/21 09:58:23;;;;;;;0.00;0.00;;;;;;;28.49;43.18;97549.34;5026751;28;20052;-75
2023/06/21 10:00:51;;;;;;;0.03;0.03;;;;;;;28.86;42.35;97545.44;5024520;28;20042;-73
2023/06/21 10:03:21;;;;;;;0.00;0.00;;;;;;;28.95;42.49;97564.72;5025027;28;20115;-73
2023/06/21 10:05:56;;;;;;;0.00;0.00;;;;;;;28.94;42.10;97554.84;5022183;28;20048;-73
2023/06/21 10:08:26;;;;;;;0.00;0.00;;;;;;;28.91;42.31;97556.28;5024443;28;20096;-73
2023/06/21 10:10:55;;;;;;;0.00;0.00;;;;;;;29.19;41.97;97562.41;5024002;28;20053;-73
2023/06/21 10:13:26;;;;;;;0.00;0.00;;;;;;;29.30;41.62;97558.25;5018482;28;20045;-73
2023/06/21 10:15:54;;;;;;;0.00;0.00;;;;;;;29.33;41.43;97554.88;5027030;28;20045;-74
2023/06/21 10:18:22;;;;;;;0.00;0.00;;;;;;;29.37;40.95;97566.09;5021276;28;20042;-74
2023/06/21 10:20:54;;;;;;;0.00;0.00;;;;;;;29.73;40.27;97557.63;5028039;28;20420;-74
2023/06/21 10:23:23;;;;;;;0.00;0.00;;;;;;;29.71;40.05;97557.13;5021133;28;20493;-73
2023/06/21 10:25:53;;;;;;;0.00;0.00;;;;;;;29.51;40.44;97562.09;5028416;28;20516;-73
2023/06/21 10:28:22;;;;;;;0.00;0.00;;;;;;;29.42;40.75;97561.25;5020878;28;20393;-73
2023/06/21 10:30:53;;;;;;;0.00;0.00;;;;;;;29.72;40.93;97558.75;5023100;28;20049;-73
2023/06/21 10:33:21;;;;;;;0.00;0.00;;;;;;;30.07;39.72;97563.25;5023849;28;20050;-73
2023/06/21 10:35:52;;;;;;;0.00;0.00;;;;;;;30.01;40.05;97570.03;5022518;28;20564;-73
2023/06/21 10:38:26;;;;;;;0.00;0.00;;;;;;;30.17;39.87;97575.91;5024901;28;20085;-73
2023/06/21 10:40:55;;;;;;;0.00;0.00;;;;;;;30.06;39.67;97571.84;5023892;28;20041;-73
2023/06/21 10:43:22;;;;;;;0.00;0.00;;;;;;;29.88;40.33;97570.97;5022117;28;20045;-73
2023/06/21 10:45:51;;;;;;;0.00;0.00;;;;;;;29.91;40.62;97586.81;5017261;28;20386;-73
2023/06/21 10:48:19;;;;;;;0.00;0.00;;;;;;;30.01;40.21;97580.22;5024196;28;20060;-73
2023/06/21 10:50:46;;;;;;;0.00;0.00;;;;;;;30.23;39.89;97580.13;5022453;28;20057;-73
2023/06/21 10:53:17;;;;;;;0.00;0.00;;;;;;;30.29;39.62;97581.59;5024180;28;20047;-73
2023/06/21 10:55:47;;;;;;;0.00;0.00;;;;;;;30.08;39.43;97588.84;5022102;28;20391;-73
2023/06/21 10:58:16;;;;;;;0.00;0.00;;;;;;;29.99;39.52;97591.59;5023590;28;20128;-73
2023/06/21 11:00:44;;;;;;;0.00;0.00;;;;;;;29.69;40.49;97592.44;5023258;28;20057;-74
2023/06/21 11:03:15;;;;;;;0.00;0.00;;;;;;;29.53;40.77;97586.53;5018053;28;20051;-73
2023/06/21 11:05:46;;;;;;;0.00;0.00;;;;;;;29.43;40.71;97587.66;5021052;28;20089;-73
2023/06/21 11:08:15;;;;;;;0.00;0.00;;;;;;;29.38;40.88;97579.50;5023723;28;20055;-73
2023/06/21 11:10:43;;;;;;;0.00;0.00;;;;;;;29.34;41.17;97573.00;5022321;28;20041;-74
2023/06/21 11:13:11;;;;;;;0.00;0.00;;;;;;;29.46;40.47;97573.25;5015090;28;20049;-73
2023/06/21 11:15:42;;;;;;;0.00;0.00;;;;;;;29.84;39.77;97572.72;5025567;28;20055;-73
2023/06/21 11:18:10;;;;;;;0.00;0.00;;;;;;;30.04;39.94;97574.91;5020504;28;20054;-73
2023/06/21 11:20:46;;;;;;;0.00;0.00;;;;;;;30.55;38.95;97570.59;5027032;28;20041;-74
2023/06/21 11:23:16;;;;;;;0.00;0.00;;;;;;;30.65;38.32;97562.00;5020215;28;20088;-73
2023/06/21 11:25:49;;;;;;;0.00;0.00;;;;;;;30.06;39.75;97578.16;5027058;28;20070;-73
2023/06/21 11:28:26;;;;;;;0.00;0.00;;;;;;;30.49;38.66;97569.13;5020096;28;20068;-73
2023/06/21 11:31:08;;;;;;;0.00;0.00;;;;;;;30.86;37.93;97571.22;5023909;28;20052;-73
2023/06/21 11:33:47;;;;;;;0.00;0.00;;;;;;;31.21;37.53;97571.19;5021268;28;20052;-74
2023/06/21 11:36:17;;;;;;;0.00;0.00;;;;;;;31.22;37.24;97576.38;5023204;28;20124;-74
2023/06/21 11:38:52;;;;;;;0.00;0.00;;;;;;;31.30;37.07;97567.25;5022249;28;20063;-73
2023/06/21 11:41:40;;;;;;;0.00;0.00;;;;;;;31.27;37.41;97565.13;5024415;28;20079;-73
2023/06/21 11:44:08;;;;;;;0.00;0.00;;;;;;;31.24;37.07;97560.31;5030506;28;20068;-73